Ackworth, IA

3:56 PM CST on December 28, 2014 (GMT -0600)
Pella Municipal | Change Station
CLOSE
Current Station
Airport
Location: Pella,
Elevation: 886 ft
Nearby Weather Stations

Elev 886 ft 41.40 °N, 92.94 °W | Updated 21 minutes ago

Clear
Clear
36 °F
Feels Like 33 °F
N
5
Wind Variable Wind from WSW

Today
High -- | Low -- °F
--% Chance of Precip.
Yesterday
High -- | Low -- °F
Precip. -- in
7:38 AM 4:51 PM
First Quarter, 51% visible
Pressure 30.16 in
Visibility 10.0 miles
Clouds Clear
Windchill 33 °F
Dew Point 24 °F
Humidity 59%
Rainfall 0.00 in
Snow Depth Not available.
UV 1 out of 12
Pollen .10 out of 12
Air Quality Not available.
Flu Activity Not available.
METAR KPEA 282135Z AUTO 24004KT 10SM CLR 03/M05 A3016 RMK AO2 T00251047

More Conditions Fewer Conditions

Pressure 30.16 in
Visibility 10.0 miles
Clouds Clear
Windchill 33 °F
Dew Point 24 °F
Humidity 59%
Rainfall 0.00 in
Snow Depth Not available.
UV 1 out of 12
Pollen .10 out of 12
Air Quality Not available.
Flu Activity Not available.
METAR KPEA 282135Z AUTO 24004KT 10SM CLR 03/M05 A3016 RMK AO2 T00251047

More Conditions Fewer Conditions

10-Day Weather Forecast

Almanac

Astronomy

Dec. 28, 2014 Rise Set
Actual Time
Civil Twilight
Nautical Twilight
Astronomical Twilight
Moon
Length of Visible Light
Length of Day
Tomorrow will be .
, % of the Moon is Illuminated

Today's Extremes

State Highs State Lows

Community

WunderPhotos

Upload Photos

1,781,436 photos uploaded!

WunderBlogs® & News

Nearby

Air Quality

  Air Quality AQ Index Pollutant
Not available.

Snow Depth

Station Depth Elevation

Earthquake Activity

City Distance Mag. Time & Date
Minimum magnitude displayed is 2.5.

Coastal Water Temperatures

Place Temperature

Nearby Weather Stations